Grand Marais, MI (49839)

4:55 PM EST on March 06, 2015 (GMT -0500)
RAWS SPINCICH LAKE MI US | Change Station
CLOSE
Current Station
Personal Weather Station
Location: McMillan, MI
Elevation: 896 ft
Nearby Weather Stations

Elev 896 ft 46.46 °N, 85.63 °W | Updated 54 minutes ago

Overcast
Overcast
24 °F
Feels Like 12 °F
N
14
Wind Variable Wind from SW
Gusts 28.0 mph

Today
High -- | Low -- °F
--% Chance of Precip.
Yesterday
High -- | Low -- °F
Precip. -- in
7:14 AM 6:36 PM
Full, 99% visible
Pressure 29.92 in
Visibility 5.0 miles
Clouds Overcast 2300 ft
Windchill 12 °F
Dew Point 13 °F
Humidity 63%
Rainfall in
Snow Depth Not available.
UV 0 out of 12
Pollen .40 out of 12
Air Quality Not available.
Flu Activity Not available.
METAR KERY 062134Z AUTO 21019G25KT 5SM HZ OVC023 M05/M08 A2992 RMK AO2 T10501082

More Conditions Fewer Conditions

Pressure 29.92 in
Visibility 5.0 miles
Clouds Overcast 2300 ft
Windchill 12 °F
Dew Point 13 °F
Humidity 63%
Rainfall in
Snow Depth Not available.
UV 0 out of 12
Pollen .40 out of 12
Air Quality Not available.
Flu Activity Not available.
METAR KERY 062134Z AUTO 21019G25KT 5SM HZ OVC023 M05/M08 A2992 RMK AO2 T10501082

More Conditions Fewer Conditions

10-Day Weather Forecast

Almanac

Astronomy

Mar. 06, 2015 Rise Set
Actual Time
Civil Twilight
Nautical Twilight
Astronomical Twilight
Moon
Length of Visible Light
Length of Day
Tomorrow will be .
, % of the Moon is Illuminated

Today's Extremes

State Highs State Lows

Community

WunderPhotos

Upload Photos

1,803,406 photos uploaded!

WunderBlogs® & News

Nearby

Air Quality

  Air Quality AQ Index Pollutant
Not available.

Snow Depth

Station Depth Elevation

Earthquake Activity

City Distance Mag. Time & Date
Minimum magnitude displayed is 2.5.

Coastal Water Temperatures

Place Temperature

Nearby Weather Stations